sensor_id;sensor_type;location;lat;lon;timestamp;temperature;humidity
37356;DHT22;48747;50.250;18.848;2023-11-19T00:04:12;-0.30;99.90
37356;DHT22;48747;50.250;18.848;2023-11-19T00:06:36;-0.30;99.90
37356;DHT22;48747;50.250;18.848;2023-11-19T00:11:20;-0.30;99.90
37356;DHT22;48747;50.250;18.848;2023-11-19T00:13:25;-0.30;99.90
37356;DHT22;48747;50.250;18.848;2023-11-19T00:18:55;-0.20;99.90
37356;DHT22;48747;50.250;18.848;2023-11-19T00:25:48;-0.30;99.90
37356;DHT22;48747;50.250;18.848;2023-11-19T00:27:59;-0.20;99.90
37356;DHT22;48747;50.250;18.848;2023-11-19T00:34:39;-0.30;99.90
37356;DHT22;48747;50.250;18.848;2023-11-19T00:36:53;-0.20;99.90
37356;DHT22;48747;50.250;18.848;2023-11-19T00:41:11;-0.20;99.90
37356;DHT22;48747;50.250;18.848;2023-11-19T00:43:16;-0.20;99.90
37356;DHT22;48747;50.250;18.848;2023-11-19T00:45:35;-0.10;99.90
37356;DHT22;48747;50.250;18.848;2023-11-19T00:47:44;-0.10;99.90
37356;DHT22;48747;50.250;18.848;2023-11-19T00:50:03;-0.10;99.90
37356;DHT22;48747;50.250;18.848;2023-11-19T00:52:06;-0.10;99.90
37356;DHT22;48747;50.250;18.848;2023-11-19T01:03:00;0.00;99.90
37356;DHT22;48747;50.250;18.848;2023-11-19T01:05:04;0.00;99.90
37356;DHT22;48747;50.250;18.848;2023-11-19T01:07:19;0.00;99.90
37356;DHT22;48747;50.250;18.848;2023-11-19T01:13:52;-0.20;99.90
37356;DHT22;48747;50.250;18.848;2023-11-19T01:15:59;-0.20;99.90
37356;DHT22;48747;50.250;18.848;2023-11-19T01:18:06;-0.10;99.90
37356;DHT22;48747;50.250;18.848;2023-11-19T01:20:12;-0.10;99.90
37356;DHT22;48747;50.250;18.848;2023-11-19T01:22:28;-0.10;99.90
37356;DHT22;48747;50.250;18.848;2023-11-19T01:32:19;-0.10;99.90
37356;DHT22;48747;50.250;18.848;2023-11-19T01:37:05;-0.10;99.90
37356;DHT22;48747;50.250;18.848;2023-11-19T01:42:08;-0.10;99.90
37356;DHT22;48747;50.250;18.848;2023-11-19T01:44:35;-0.20;99.90
37356;DHT22;48747;50.250;18.848;2023-11-19T01:46:46;-0.20;99.90
37356;DHT22;48747;50.250;18.848;2023-11-19T01:51:50;-0.20;99.90
37356;DHT22;48747;50.250;18.848;2023-11-19T02:11:22;-0.10;99.90
37356;DHT22;48747;50.250;18.848;2023-11-19T02:21:40;0.00;99.90
37356;DHT22;48747;50.250;18.848;2023-11-19T02:27:08;0.00;99.90
37356;DHT22;48747;50.250;18.848;2023-11-19T02:28:56;0.00;99.90
37356;DHT22;48747;50.250;18.848;2023-11-19T02:40:19;0.00;99.90
37356;DHT22;48747;50.250;18.848;2023-11-19T02:44:38;0.00;99.90
37356;DHT22;48747;50.250;18.848;2023-11-19T02:51:12;0.00;99.90
37356;DHT22;48747;50.250;18.848;2023-11-19T02:53:17;0.00;99.90
37356;DHT22;48747;50.250;18.848;2023-11-19T02:55:26;0.00;99.90
37356;DHT22;48747;50.250;18.848;2023-11-19T02:57:36;0.00;99.90
37356;DHT22;48747;50.250;18.848;2023-11-19T02:59:38;0.00;99.90
37356;DHT22;48747;50.250;18.848;2023-11-19T03:01:48;0.00;99.90
37356;DHT22;48747;50.250;18.848;2023-11-19T03:03:52;-0.10;99.90
37356;DHT22;48747;50.250;18.848;2023-11-19T03:06:04;-0.10;99.90
37356;DHT22;48747;50.250;18.848;2023-11-19T03:10:19;-0.10;99.90
37356;DHT22;48747;50.250;18.848;2023-11-19T03:12:30;-0.10;99.90
37356;DHT22;48747;50.250;18.848;2023-11-19T03:14:34;-0.10;99.90
37356;DHT22;48747;50.250;18.848;2023-11-19T03:16:54;-0.10;99.90
37356;DHT22;48747;50.250;18.848;2023-11-19T03:18:49;-0.20;99.90
37356;DHT22;48747;50.250;18.848;2023-11-19T03:20:58;-0.20;99.90
37356;DHT22;48747;50.250;18.848;2023-11-19T03:23:09;-0.30;99.90
37356;DHT22;48747;50.250;18.848;2023-11-19T03:25:24;-0.20;99.90
37356;DHT22;48747;50.250;18.848;2023-11-19T03:27:33;-0.20;99.90
37356;DHT22;48747;50.250;18.848;2023-11-19T03:31:52;-0.10;99.90
37356;DHT22;48747;50.250;18.848;2023-11-19T03:33:55;-0.10;99.90
37356;DHT22;48747;50.250;18.848;2023-11-19T03:36:00;-0.10;99.90
37356;DHT22;48747;50.250;18.848;2023-11-19T03:38:11;0.00;99.90
37356;DHT22;48747;50.250;18.848;2023-11-19T03:40:16;0.00;99.90
37356;DHT22;48747;50.250;18.848;2023-11-19T03:42:27;0.00;99.90
37356;DHT22;48747;50.250;18.848;2023-11-19T03:44:37;0.00;99.90
37356;DHT22;48747;50.250;18.848;2023-11-19T03:47:06;0.00;99.90
37356;DHT22;48747;50.250;18.848;2023-11-19T03:49:06;0.00;99.90
37356;DHT22;48747;50.250;18.848;2023-11-19T03:55:18;0.00;99.90
37356;DHT22;48747;50.250;18.848;2023-11-19T03:57:38;0.00;99.90
37356;DHT22;48747;50.250;18.848;2023-11-19T04:02:57;0.10;99.90
37356;DHT22;48747;50.250;18.848;2023-11-19T04:07:08;0.10;99.90
37356;DHT22;48747;50.250;18.848;2023-11-19T04:09:15;0.10;99.90
37356;DHT22;48747;50.250;18.848;2023-11-19T04:11:17;0.10;99.90
37356;DHT22;48747;50.250;18.848;2023-11-19T04:13:24;0.10;99.90
37356;DHT22;48747;50.250;18.848;2023-11-19T04:17:58;0.10;99.90
37356;DHT22;48747;50.250;18.848;2023-11-19T04:20:05;0.10;99.90
37356;DHT22;48747;50.250;18.848;2023-11-19T04:22:17;0.10;99.90
37356;DHT22;48747;50.250;18.848;2023-11-19T04:24:22;0.10;99.90
37356;DHT22;48747;50.250;18.848;2023-11-19T04:26:42;0.10;99.90
37356;DHT22;48747;50.250;18.848;2023-11-19T04:28:41;0.20;99.90
37356;DHT22;48747;50.250;18.848;2023-11-19T04:30:56;0.20;99.90
37356;DHT22;48747;50.250;18.848;2023-11-19T04:33:03;0.10;99.90
37356;DHT22;48747;50.250;18.848;2023-11-19T04:35:15;0.10;99.90
37356;DHT22;48747;50.250;18.848;2023-11-19T04:37:24;0.10;99.90
37356;DHT22;48747;50.250;18.848;2023-11-19T04:39:27;0.10;99.90
37356;DHT22;48747;50.250;18.848;2023-11-19T04:41:49;0.10;99.90
37356;DHT22;48747;50.250;18.848;2023-11-19T04:43:55;0.10;99.90
37356;DHT22;48747;50.250;18.848;2023-11-19T04:45:56;0.10;99.90
37356;DHT22;48747;50.250;18.848;2023-11-19T04:47:59;0.10;99.90
37356;DHT22;48747;50.250;18.848;2023-11-19T04:50:29;0.10;99.90
37356;DHT22;48747;50.250;18.848;2023-11-19T04:52:30;0.10;99.90
37356;DHT22;48747;50.250;18.848;2023-11-19T04:54:40;0.00;99.90
37356;DHT22;48747;50.250;18.848;2023-11-19T04:56:51;0.00;99.90
37356;DHT22;48747;50.250;18.848;2023-11-19T04:58:52;0.00;99.90
37356;DHT22;48747;50.250;18.848;2023-11-19T05:01:03;0.00;99.90
37356;DHT22;48747;50.250;18.848;2023-11-19T05:03:17;0.10;99.90
37356;DHT22;48747;50.250;18.848;2023-11-19T05:05:22;0.10;99.90
37356;DHT22;48747;50.250;18.848;2023-11-19T05:07:37;0.10;99.90
37356;DHT22;48747;50.250;18.848;2023-11-19T05:09:39;0.20;99.90
37356;DHT22;48747;50.250;18.848;2023-11-19T05:11:45;0.20;99.90
37356;DHT22;48747;50.250;18.848;2023-11-19T05:15:58;0.20;99.90
37356;DHT22;48747;50.250;18.848;2023-11-19T05:18:04;0.20;99.90
37356;DHT22;48747;50.250;18.848;2023-11-19T05:20:09;0.20;99.90
37356;DHT22;48747;50.250;18.848;2023-11-19T05:27:13;0.20;99.90
37356;DHT22;48747;50.250;18.848;2023-11-19T05:31:32;0.20;99.90
37356;DHT22;48747;50.250;18.848;2023-11-19T05:33:37;0.30;99.90
37356;DHT22;48747;50.250;18.848;2023-11-19T05:35:47;0.20;99.90
37356;DHT22;48747;50.250;18.848;2023-11-19T05:37:54;0.20;99.90
37356;DHT22;48747;50.250;18.848;2023-11-19T05:40:49;0.20;99.90
37356;DHT22;48747;50.250;18.848;2023-11-19T05:42:24;0.20;99.90
37356;DHT22;48747;50.250;18.848;2023-11-19T05:44:28;0.20;99.90
37356;DHT22;48747;50.250;18.848;2023-11-19T05:46:45;0.20;99.90
37356;DHT22;48747;50.250;18.848;2023-11-19T05:48:46;0.30;99.90
37356;DHT22;48747;50.250;18.848;2023-11-19T05:50:55;0.30;99.90
37356;DHT22;48747;50.250;18.848;2023-11-19T05:53:04;0.30;99.90
37356;DHT22;48747;50.250;18.848;2023-11-19T05:55:16;0.30;99.90
37356;DHT22;48747;50.250;18.848;2023-11-19T05:57:34;0.30;99.90
37356;DHT22;48747;50.250;18.848;2023-11-19T05:59:29;0.30;99.90
37356;DHT22;48747;50.250;18.848;2023-11-19T06:01:42;0.40;99.90
37356;DHT22;48747;50.250;18.848;2023-11-19T06:03:48;0.40;99.90
37356;DHT22;48747;50.250;18.848;2023-11-19T06:11:02;0.40;99.90
37356;DHT22;48747;50.250;18.848;2023-11-19T06:13:06;0.40;99.90
37356;DHT22;48747;50.250;18.848;2023-11-19T06:15:14;0.40;99.90
37356;DHT22;48747;50.250;18.848;2023-11-19T06:20:16;0.50;99.90
37356;DHT22;48747;50.250;18.848;2023-11-19T06:22:23;0.40;99.90
37356;DHT22;48747;50.250;18.848;2023-11-19T06:24:34;0.50;99.90
37356;DHT22;48747;50.250;18.848;2023-11-19T06:26:54;0.50;99.90
37356;DHT22;48747;50.250;18.848;2023-11-19T06:28:49;0.50;99.90
37356;DHT22;48747;50.250;18.848;2023-11-19T06:37:38;0.70;99.90
37356;DHT22;48747;50.250;18.848;2023-11-19T06:39:54;0.70;99.90
37356;DHT22;48747;50.250;18.848;2023-11-19T06:41:52;0.70;99.90
37356;DHT22;48747;50.250;18.848;2023-11-19T06:44:04;0.70;99.90
37356;DHT22;48747;50.250;18.848;2023-11-19T06:49:04;0.80;99.90
37356;DHT22;48747;50.250;18.848;2023-11-19T07:01:34;0.90;99.90
37356;DHT22;48747;50.250;18.848;2023-11-19T07:03:43;1.00;99.90
37356;DHT22;48747;50.250;18.848;2023-11-19T07:05:48;1.00;99.90
37356;DHT22;48747;50.250;18.848;2023-11-19T07:07:55;1.00;99.90
37356;DHT22;48747;50.250;18.848;2023-11-19T07:26:52;1.20;99.90
37356;DHT22;48747;50.250;18.848;2023-11-19T07:36:53;1.40;99.90
37356;DHT22;48747;50.250;18.848;2023-11-19T07:44:58;1.50;99.90
37356;DHT22;48747;50.250;18.848;2023-11-19T07:55:02;1.80;99.90
37356;DHT22;48747;50.250;18.848;2023-11-19T08:38:57;2.10;99.90
37356;DHT22;48747;50.250;18.848;2023-11-19T09:23:20;2.40;99.90
37356;DHT22;48747;50.250;18.848;2023-11-19T10:35:50;3.80;99.90
37356;DHT22;48747;50.250;18.848;2023-11-19T10:37:37;3.80;99.90
37356;DHT22;48747;50.250;18.848;2023-11-19T10:39:58;3.70;99.90
37356;DHT22;48747;50.250;18.848;2023-11-19T10:44:39;3.60;99.90
37356;DHT22;48747;50.250;18.848;2023-11-19T10:47:15;3.50;99.90
37356;DHT22;48747;50.250;18.848;2023-11-19T10:58:21;3.10;99.90
37356;DHT22;48747;50.250;18.848;2023-11-19T11:08:26;3.00;99.90
37356;DHT22;48747;50.250;18.848;2023-11-19T11:10:28;2.90;99.90
37356;DHT22;48747;50.250;18.848;2023-11-19T11:20:14;2.90;99.90
37356;DHT22;48747;50.250;18.848;2023-11-19T11:24:46;2.80;99.90
37356;DHT22;48747;50.250;18.848;2023-11-19T11:54:02;2.20;99.90
37356;DHT22;48747;50.250;18.848;2023-11-19T12:49:32;2.40;99.90
37356;DHT22;48747;50.250;18.848;2023-11-19T12:51:33;2.40;99.90
37356;DHT22;48747;50.250;18.848;2023-11-19T13:05:20;2.60;99.90
37356;DHT22;48747;50.250;18.848;2023-11-19T20:51:42;5.00;99.90
37356;DHT22;48747;50.250;18.848;2023-11-19T20:56:09;5.10;99.90
37356;DHT22;48747;50.250;18.848;2023-11-19T21:06:50;5.10;99.90
37356;DHT22;48747;50.250;18.848;2023-11-19T21:08:53;5.10;99.90
37356;DHT22;48747;50.250;18.848;2023-11-19T21:11:02;5.10;99.90
37356;DHT22;48747;50.250;18.848;2023-11-19T21:13:02;5.20;99.90
37356;DHT22;48747;50.250;18.848;2023-11-19T21:15:09;5.20;99.90
37356;DHT22;48747;50.250;18.848;2023-11-19T21:17:12;5.20;99.90
37356;DHT22;48747;50.250;18.848;2023-11-19T21:21:27;5.10;99.90
37356;DHT22;48747;50.250;18.848;2023-11-19T21:23:27;5.10;99.90
37356;DHT22;48747;50.250;18.848;2023-11-19T21:26:01;5.10;99.90
37356;DHT22;48747;50.250;18.848;2023-11-19T21:28:07;5.10;99.90
37356;DHT22;48747;50.250;18.848;2023-11-19T21:34:30;5.10;99.90
37356;DHT22;48747;50.250;18.848;2023-11-19T21:36:39;5.10;99.90
37356;DHT22;48747;50.250;18.848;2023-11-19T21:38:49;5.10;99.90
37356;DHT22;48747;50.250;18.848;2023-11-19T21:40:51;5.10;99.90
37356;DHT22;48747;50.250;18.848;2023-11-19T21:43:07;5.20;99.90
37356;DHT22;48747;50.250;18.848;2023-11-19T21:45:08;5.10;99.90
37356;DHT22;48747;50.250;18.848;2023-11-19T21:59:15;5.20;99.90
37356;DHT22;48747;50.250;18.848;2023-11-19T22:07:13;5.30;99.90
37356;DHT22;48747;50.250;18.848;2023-11-19T22:11:25;5.30;99.90
37356;DHT22;48747;50.250;18.848;2023-11-19T22:26:40;5.40;99.90
37356;DHT22;48747;50.250;18.848;2023-11-19T22:29:06;5.40;99.90
37356;DHT22;48747;50.250;18.848;2023-11-19T22:31:19;5.40;99.90
37356;DHT22;48747;50.250;18.848;2023-11-19T22:33:20;5.40;99.90
37356;DHT22;48747;50.250;18.848;2023-11-19T22:37:44;5.40;99.90
37356;DHT22;48747;50.250;18.848;2023-11-19T22:40:00;5.40;99.90
37356;DHT22;48747;50.250;18.848;2023-11-19T22:41:59;5.50;99.90
37356;DHT22;48747;50.250;18.848;2023-11-19T22:44:03;5.50;99.90
37356;DHT22;48747;50.250;18.848;2023-11-19T22:48:29;5.50;99.90
37356;DHT22;48747;50.250;18.848;2023-11-19T22:50:33;5.50;99.90
37356;DHT22;48747;50.250;18.848;2023-11-19T22:52:44;5.50;99.90
37356;DHT22;48747;50.250;18.848;2023-11-19T22:54:49;5.50;99.90
37356;DHT22;48747;50.250;18.848;2023-11-19T22:57:03;5.60;99.90
37356;DHT22;48747;50.250;18.848;2023-11-19T23:01:15;5.60;99.90
37356;DHT22;48747;50.250;18.848;2023-11-19T23:03:24;5.50;99.90
37356;DHT22;48747;50.250;18.848;2023-11-19T23:05:43;5.50;99.90
37356;DHT22;48747;50.250;18.848;2023-11-19T23:07:47;5.50;99.90
37356;DHT22;48747;50.250;18.848;2023-11-19T23:12:07;5.50;99.90
37356;DHT22;48747;50.250;18.848;2023-11-19T23:16:22;5.50;99.90
37356;DHT22;48747;50.250;18.848;2023-11-19T23:18:42;5.60;99.90
37356;DHT22;48747;50.250;18.848;2023-11-19T23:20:36;5.50;99.90
37356;DHT22;48747;50.250;18.848;2023-11-19T23:22:43;5.50;99.90
37356;DHT22;48747;50.250;18.848;2023-11-19T23:24:54;5.50;99.90
37356;DHT22;48747;50.250;18.848;2023-11-19T23:26:57;5.50;99.90
37356;DHT22;48747;50.250;18.848;2023-11-19T23:29:19;5.60;99.90
37356;DHT22;48747;50.250;18.848;2023-11-19T23:31:14;5.60;99.90
37356;DHT22;48747;50.250;18.848;2023-11-19T23:33:25;5.70;99.90
37356;DHT22;48747;50.250;18.848;2023-11-19T23:35:31;5.60;99.90
37356;DHT22;48747;50.250;18.848;2023-11-19T23:37:39;5.70;99.90
37356;DHT22;48747;50.250;18.848;2023-11-19T23:39:51;5.70;99.90
37356;DHT22;48747;50.250;18.848;2023-11-19T23:41:54;5.60;99.90
37356;DHT22;48747;50.250;18.848;2023-11-19T23:44:00;5.70;99.90
37356;DHT22;48747;50.250;18.848;2023-11-19T23:46:19;5.70;99.90
37356;DHT22;48747;50.250;18.848;2023-11-19T23:48:12;5.70;99.90
37356;DHT22;48747;50.250;18.848;2023-11-19T23:50:19;5.70;99.90
37356;DHT22;48747;50.250;18.848;2023-11-19T23:52:29;5.70;99.90
37356;DHT22;48747;50.250;18.848;2023-11-19T23:54:31;5.60;99.90
37356;DHT22;48747;50.250;18.848;2023-11-19T23:56:46;5.60;99.90
37356;DHT22;48747;50.250;18.848;2023-11-19T23:59:09;5.60;99.90
